Time;durP1;ratioP1;P1;durP2;ratioP2;P2;SDS_P1;SDS_P2;PMS_P1;PMS_P2;Temp;Humidity;BMP_temperature;BMP_pressure;BME280_temperature;BME280_humidity;BME280_pressure;Samples;Min_cycle;Max_cycle;Signal;HPM_P1;HPM_P2
2024/01/07 00:01:49;;;;;;;6.60;4.07;;;;;;;;;;4987826;28;20235;-88
2024/01/07 00:04:16;;;;;;;4.10;3.70;;;;;;;;;;4987191;28;20204;-89
2024/01/07 00:06:43;;;;;;;5.30;4.17;;;;;;;;;;4990861;28;20244;-88
2024/01/07 00:09:10;;;;;;;4.67;4.10;;;;;;;;;;4977011;28;20237;-88
2024/01/07 00:11:37;;;;;;;5.17;4.53;;;;;;;;;;4989398;28;20236;-88
2024/01/07 00:14:04;;;;;;;4.27;3.70;;;;;;;;;;4991744;28;20231;-88
2024/01/07 00:16:32;;;;;;;5.00;3.67;;;;;;;;;;4985433;28;20613;-88
2024/01/07 00:18:59;;;;;;;4.33;3.77;;;;;;;;;;4986279;28;20232;-88
2024/01/07 00:21:26;;;;;;;4.50;4.10;;;;;;;;;;4985655;28;20239;-88
2024/01/07 00:23:53;;;;;;;5.83;4.40;;;;;;;;;;4986241;28;20247;-89
2024/01/07 00:26:20;;;;;;;5.70;4.03;;;;;;;;;;4985497;28;20234;-88
2024/01/07 00:28:47;;;;;;;4.93;4.27;;;;;;;;;;4986229;28;20232;-88
2024/01/07 00:31:14;;;;;;;4.53;3.60;;;;;;;;;;4978089;28;20236;-88
2024/01/07 00:33:43;;;;;;;5.40;4.00;;;;;;;;;;4988541;28;20212;-88
2024/01/07 00:36:10;;;;;;;5.60;3.73;;;;;;;;;;4990669;28;20683;-88
2024/01/07 00:38:37;;;;;;;4.97;4.30;;;;;;;;;;4974942;28;20327;-88
2024/01/07 00:41:04;;;;;;;5.63;3.97;;;;;;;;;;4990520;28;20737;-88
2024/01/07 00:43:31;;;;;;;5.50;4.60;;;;;;;;;;4982725;28;20216;-88
2024/01/07 00:45:58;;;;;;;4.43;4.03;;;;;;;;;;4990455;28;20243;-89
2024/01/07 00:48:25;;;;;;;5.23;4.33;;;;;;;;;;4986181;28;20211;-88
2024/01/07 00:50:55;;;;;;;6.77;4.37;;;;;;;;;;4986404;28;20244;-87
2024/01/07 00:53:22;;;;;;;3.87;3.53;;;;;;;;;;4993899;28;20258;-87
2024/01/07 00:55:49;;;;;;;7.60;4.33;;;;;;;;;;4988865;28;20243;-88
2024/01/07 00:58:16;;;;;;;4.20;3.80;;;;;;;;;;4975270;28;20221;-88
2024/01/07 01:00:50;;;;;;;6.10;4.27;;;;;;;;;;4981997;28;20248;-88
2024/01/07 01:03:17;;;;;;;5.10;4.20;;;;;;;;;;4976966;28;20212;-88
2024/01/07 01:05:44;;;;;;;6.03;3.70;;;;;;;;;;4987872;28;20236;-88
2024/01/07 01:08:13;;;;;;;6.23;4.27;;;;;;;;;;4984333;28;20208;-88
2024/01/07 01:10:40;;;;;;;4.67;4.13;;;;;;;;;;4993031;28;20796;-88
2024/01/07 01:13:07;;;;;;;4.33;3.93;;;;;;;;;;4992748;28;20216;-87
2024/01/07 01:15:34;;;;;;;4.50;3.83;;;;;;;;;;4985949;28;20244;-88
2024/01/07 01:18:01;;;;;;;5.30;4.03;;;;;;;;;;4997608;28;20267;-88
2024/01/07 01:20:28;;;;;;;4.40;3.90;;;;;;;;;;4989241;28;20238;-88
2024/01/07 01:22:55;;;;;;;4.00;3.60;;;;;;;;;;4988967;28;20238;-88
2024/01/07 01:25:23;;;;;;;4.30;3.73;;;;;;;;;;4978578;28;20246;-88
2024/01/07 01:27:50;;;;;;;4.50;3.53;;;;;;;;;;4980020;28;20624;-88
2024/01/07 01:30:18;;;;;;;4.30;3.83;;;;;;;;;;4987607;28;20607;-88
2024/01/07 01:32:45;;;;;;;5.07;3.67;;;;;;;;;;4991034;28;20203;-88
2024/01/07 01:35:12;;;;;;;3.57;3.20;;;;;;;;;;4996209;28;20224;-88
2024/01/07 01:37:39;;;;;;;3.97;3.57;;;;;;;;;;4992083;28;20262;-88
2024/01/07 01:40:06;;;;;;;4.20;3.80;;;;;;;;;;4985277;28;20234;-88
2024/01/07 01:42:34;;;;;;;4.07;3.60;;;;;;;;;;4988560;28;20218;-88
2024/01/07 01:45:02;;;;;;;4.77;3.80;;;;;;;;;;4980560;28;20207;-88
2024/01/07 01:47:29;;;;;;;4.20;3.50;;;;;;;;;;4980360;28;20231;-87
2024/01/07 01:49:56;;;;;;;4.10;3.60;;;;;;;;;;4988867;28;20628;-88
2024/01/07 01:52:23;;;;;;;4.63;4.07;;;;;;;;;;4992422;28;20246;-88
2024/01/07 01:54:50;;;;;;;4.73;3.77;;;;;;;;;;4977117;28;20633;-87
2024/01/07 01:57:22;;;;;;;3.67;3.30;;;;;;;;;;4992550;28;20262;-88
2024/01/07 01:59:50;;;;;;;4.77;3.77;;;;;;;;;;4991147;28;20259;-88
2024/01/07 02:02:17;;;;;;;4.23;3.40;;;;;;;;;;4987869;28;20232;-88
2024/01/07 02:04:44;;;;;;;3.57;3.27;;;;;;;;;;4996215;28;20203;-88
2024/01/07 02:07:11;;;;;;;4.70;4.13;;;;;;;;;;4993042;28;20290;-87
2024/01/07 02:09:39;;;;;;;5.23;3.70;;;;;;;;;;4992769;28;20235;-88
2024/01/07 02:12:11;;;;;;;4.17;3.50;;;;;;;;;;4995774;28;20231;-88
2024/01/07 02:14:38;;;;;;;5.17;4.03;;;;;;;;;;4996497;28;20302;-87
2024/01/07 02:17:06;;;;;;;4.70;3.67;;;;;;;;;;4995256;28;20715;-88
2024/01/07 02:19:33;;;;;;;6.17;4.50;;;;;;;;;;4995863;28;20227;-88
2024/01/07 02:22:00;;;;;;;4.67;4.23;;;;;;;;;;5011370;28;20237;-88
2024/01/07 02:24:30;;;;;;;3.83;3.43;;;;;;;;;;5015908;28;20210;-88
2024/01/07 02:26:57;;;;;;;4.17;3.77;;;;;;;;;;5014562;28;20266;-88
2024/01/07 02:29:24;;;;;;;4.57;3.53;;;;;;;;;;5015327;28;20261;-87
2024/01/07 02:31:51;;;;;;;4.07;3.67;;;;;;;;;;5014933;28;20237;-88
2024/01/07 02:34:18;;;;;;;3.97;3.53;;;;;;;;;;5015243;28;20207;-87
2024/01/07 02:36:45;;;;;;;5.53;3.70;;;;;;;;;;5014779;28;20281;-88
2024/01/07 02:39:12;;;;;;;4.50;4.00;;;;;;;;;;5014773;28;20226;-88
2024/01/07 02:41:40;;;;;;;4.17;3.77;;;;;;;;;;5014396;28;20238;-88
2024/01/07 02:44:07;;;;;;;4.67;4.10;;;;;;;;;;5015083;28;20658;-88
2024/01/07 02:46:34;;;;;;;4.00;3.60;;;;;;;;;;5001702;28;20247;-88
2024/01/07 02:49:01;;;;;;;4.10;3.70;;;;;;;;;;4994964;28;20620;-88
2024/01/07 02:51:28;;;;;;;4.23;3.83;;;;;;;;;;4994589;28;20243;-88
2024/01/07 02:53:55;;;;;;;6.40;4.40;;;;;;;;;;4990127;28;20207;-88
2024/01/07 02:56:22;;;;;;;3.73;3.43;;;;;;;;;;4995755;28;20274;-88
2024/01/07 02:58:50;;;;;;;4.20;3.80;;;;;;;;;;4995410;28;20224;-88
2024/01/07 03:01:18;;;;;;;4.50;4.03;;;;;;;;;;4994501;28;20247;-88
2024/01/07 03:03:45;;;;;;;3.90;3.43;;;;;;;;;;4995016;28;20211;-87
2024/01/07 03:06:12;;;;;;;4.23;3.83;;;;;;;;;;4994174;28;20236;-88
2024/01/07 03:08:39;;;;;;;5.43;4.17;;;;;;;;;;4994553;28;20707;-88
2024/01/07 03:11:06;;;;;;;4.20;3.80;;;;;;;;;;4994396;28;20367;-88
2024/01/07 03:13:33;;;;;;;5.60;3.53;;;;;;;;;;4994341;28;20230;-88
2024/01/07 03:16:02;;;;;;;3.53;3.23;;;;;;;;;;4994187;28;20339;-87
2024/01/07 03:18:29;;;;;;;4.27;3.87;;;;;;;;;;4994362;28;20239;-88
2024/01/07 03:20:56;;;;;;;4.23;3.50;;;;;;;;;;4994388;28;20269;-88
2024/01/07 03:23:23;;;;;;;4.50;3.97;;;;;;;;;;4994705;28;20216;-88
2024/01/07 03:25:50;;;;;;;4.50;3.43;;;;;;;;;;4993869;28;20612;-87
2024/01/07 03:28:17;;;;;;;4.70;3.73;;;;;;;;;;4994207;28;20211;-88
2024/01/07 03:30:55;;;;;;;3.90;3.60;;;;;;;;;;4993863;28;20650;-88
2024/01/07 03:33:23;;;;;;;4.30;3.40;;;;;;;;;;4994581;28;20564;-87
2024/01/07 03:35:50;;;;;;;5.10;3.50;;;;;;;;;;4993663;28;20243;-88
2024/01/07 03:38:17;;;;;;;4.07;3.63;;;;;;;;;;4994221;28;20548;-87
2024/01/07 03:40:44;;;;;;;4.00;3.60;;;;;;;;;;4993662;28;20701;-88
2024/01/07 03:43:11;;;;;;;4.00;3.70;;;;;;;;;;4994618;28;20266;-88
2024/01/07 03:45:38;;;;;;;3.63;3.13;;;;;;;;;;4993706;28;20228;-88
2024/01/07 03:48:05;;;;;;;3.37;3.07;;;;;;;;;;4994098;28;20207;-88
2024/01/07 03:50:34;;;;;;;3.50;3.20;;;;;;;;;;4993720;28;20289;-88
2024/01/07 03:53:01;;;;;;;5.47;3.63;;;;;;;;;;4994145;28;20654;-88
2024/01/07 03:55:28;;;;;;;4.30;3.90;;;;;;;;;;4993301;28;20247;-87
2024/01/07 03:57:55;;;;;;;4.80;3.50;;;;;;;;;;4994008;28;20211;-88
2024/01/07 04:00:22;;;;;;;4.27;3.87;;;;;;;;;;4995853;28;20293;-88
2024/01/07 04:02:49;;;;;;;3.70;3.23;;;;;;;;;;5013643;28;20207;-88
2024/01/07 04:05:16;;;;;;;5.83;3.90;;;;;;;;;;5013178;28;20656;-88
2024/01/07 04:07:44;;;;;;;3.90;3.60;;;;;;;;;;5013901;28;20265;-88
2024/01/07 04:10:11;;;;;;;3.83;3.47;;;;;;;;;;5012379;28;20237;-88
2024/01/07 04:12:38;;;;;;;4.77;4.00;;;;;;;;;;5012754;28;20218;-88
2024/01/07 04:15:06;;;;;;;6.60;4.37;;;;;;;;;;5011907;28;20219;-88
2024/01/07 04:17:33;;;;;;;5.53;3.83;;;;;;;;;;5012406;28;20204;-88
2024/01/07 04:20:00;;;;;;;4.17;3.73;;;;;;;;;;5012358;28;20222;-88
2024/01/07 04:22:27;;;;;;;3.97;3.43;;;;;;;;;;4988371;28;20238;-88
2024/01/07 04:24:55;;;;;;;5.70;3.93;;;;;;;;;;4993647;28;20218;-88
2024/01/07 04:27:23;;;;;;;6.77;3.90;;;;;;;;;;4993605;28;20225;-88
2024/01/07 04:29:50;;;;;;;4.37;3.90;;;;;;;;;;4994243;28;20226;-88
2024/01/07 04:32:17;;;;;;;4.93;3.97;;;;;;;;;;4993284;28;20235;-87
2024/01/07 04:34:45;;;;;;;3.87;3.53;;;;;;;;;;4993667;28;20215;-88
2024/01/07 04:37:12;;;;;;;5.70;3.70;;;;;;;;;;4992705;28;20271;-88
2024/01/07 04:39:39;;;;;;;6.30;4.23;;;;;;;;;;4993894;28;20251;-88
2024/01/07 04:42:07;;;;;;;8.00;4.60;;;;;;;;;;4992925;28;20245;-88
2024/01/07 04:44:34;;;;;;;6.57;4.30;;;;;;;;;;4993675;28;20215;-88
2024/01/07 04:47:01;;;;;;;6.00;4.60;;;;;;;;;;4992827;28;20239;-88
2024/01/07 04:49:28;;;;;;;6.50;4.77;;;;;;;;;;4993312;28;20305;-88
2024/01/07 04:51:55;;;;;;;6.77;4.57;;;;;;;;;;4995475;28;20246;-88
2024/01/07 04:54:23;;;;;;;6.27;4.97;;;;;;;;;;4997629;28;20207;-88
2024/01/07 04:56:50;;;;;;;7.17;4.83;;;;;;;;;;4996408;28;20239;-88
2024/01/07 04:59:18;;;;;;;5.80;5.20;;;;;;;;;;4997120;28;20326;-88
2024/01/07 05:01:45;;;;;;;5.00;4.50;;;;;;;;;;4996601;28;20266;-88
2024/01/07 05:04:12;;;;;;;5.73;5.23;;;;;;;;;;4997389;28;20219;-88
2024/01/07 05:06:40;;;;;;;6.40;4.73;;;;;;;;;;4996523;28;20234;-88
2024/01/07 05:09:07;;;;;;;8.70;5.53;;;;;;;;;;4996734;28;20227;-88
2024/01/07 05:11:34;;;;;;;9.20;5.30;;;;;;;;;;4997183;28;20231;-87
2024/01/07 05:14:01;;;;;;;6.37;5.40;;;;;;;;;;4996811;28;20671;-88
2024/01/07 05:16:29;;;;;;;5.50;4.83;;;;;;;;;;4996149;28;20706;-88
2024/01/07 05:18:56;;;;;;;7.27;5.00;;;;;;;;;;4996689;28;20227;-88
2024/01/07 05:21:23;;;;;;;7.77;5.13;;;;;;;;;;4996421;28;20698;-88
2024/01/07 05:23:50;;;;;;;6.70;5.27;;;;;;;;;;4996772;28;20215;-88
2024/01/07 05:26:17;;;;;;;5.17;4.57;;;;;;;;;;4996319;28;20239;-88
2024/01/07 05:28:44;;;;;;;5.50;4.90;;;;;;;;;;4996800;28;20230;-88
2024/01/07 05:31:15;;;;;;;6.77;5.27;;;;;;;;;;4996225;28;20652;-88
2024/01/07 05:33:44;;;;;;;5.67;4.93;;;;;;;;;;4977287;28;20221;-88
2024/01/07 05:36:11;;;;;;;8.33;5.20;;;;;;;;;;4976385;28;20246;-88
2024/01/07 05:38:38;;;;;;;6.70;4.80;;;;;;;;;;4977057;28;20232;-88
2024/01/07 05:41:05;;;;;;;5.67;5.07;;;;;;;;;;4976391;28;20646;-88
2024/01/07 05:43:32;;;;;;;6.43;4.87;;;;;;;;;;4977642;28;20243;-88
2024/01/07 05:45:59;;;;;;;7.07;5.70;;;;;;;;;;4996023;28;20239;-88
2024/01/07 05:48:26;;;;;;;7.20;5.00;;;;;;;;;;4996526;28;20219;-88
2024/01/07 05:50:55;;;;;;;7.57;5.57;;;;;;;;;;4995826;28;20246;-88
2024/01/07 05:53:22;;;;;;;8.10;5.60;;;;;;;;;;4996184;28;20378;-87
2024/01/07 05:55:49;;;;;;;7.50;5.03;;;;;;;;;;4995658;28;20286;-88
2024/01/07 05:58:16;;;;;;;6.27;4.93;;;;;;;;;;4996172;28;20220;-88
2024/01/07 06:00:43;;;;;;;7.43;5.40;;;;;;;;;;4995674;28;20238;-88
2024/01/07 06:03:12;;;;;;;7.00;5.10;;;;;;;;;;4996085;28;20211;-89
2024/01/07 06:05:39;;;;;;;8.50;5.53;;;;;;;;;;4995541;28;20257;-88
2024/01/07 06:08:08;;;;;;;8.30;5.50;;;;;;;;;;4995852;28;20218;-88
2024/01/07 06:10:35;;;;;;;6.57;5.07;;;;;;;;;;4995357;28;20602;-88
2024/01/07 06:13:03;;;;;;;12.73;6.10;;;;;;;;;;4995968;28;20340;-87
2024/01/07 06:15:30;;;;;;;9.07;5.33;;;;;;;;;;4995137;28;20234;-87
2024/01/07 06:17:57;;;;;;;11.57;6.50;;;;;;;;;;4995952;28;20565;-87
2024/01/07 06:20:24;;;;;;;7.27;5.50;;;;;;;;;;4995333;28;20243;-88
2024/01/07 06:22:51;;;;;;;8.57;5.97;;;;;;;;;;4995650;28;20201;-87
2024/01/07 06:25:20;;;;;;;8.63;6.10;;;;;;;;;;4994979;28;20569;-88
2024/01/07 06:27:47;;;;;;;9.33;5.80;;;;;;;;;;4995824;28;20294;-88
2024/01/07 06:30:15;;;;;;;7.20;6.50;;;;;;;;;;4995257;28;20229;-87
2024/01/07 06:32:42;;;;;;;8.80;6.17;;;;;;;;;;4995544;28;20206;-88
2024/01/07 06:35:09;;;;;;;9.43;6.43;;;;;;;;;;4994974;28;20222;-87
2024/01/07 06:37:36;;;;;;;8.40;5.83;;;;;;;;;;4994934;28;20236;-88
2024/01/07 06:40:03;;;;;;;8.73;7.07;;;;;;;;;;4994949;28;20239;-87
2024/01/07 06:42:32;;;;;;;6.90;5.90;;;;;;;;;;4994898;28;20219;-88
2024/01/07 06:44:59;;;;;;;9.73;6.20;;;;;;;;;;4975567;28;20216;-88
2024/01/07 06:47:26;;;;;;;9.37;6.47;;;;;;;;;;4975111;28;20231;-87
2024/01/07 06:49:53;;;;;;;7.87;5.53;;;;;;;;;;4993792;28;20744;-88
2024/01/07 06:52:21;;;;;;;7.50;5.87;;;;;;;;;;4994517;28;20262;-87
2024/01/07 06:54:48;;;;;;;8.40;5.70;;;;;;;;;;4994978;28;20291;-87
2024/01/07 06:57:15;;;;;;;6.97;6.13;;;;;;;;;;4994163;28;20238;-87
2024/01/07 06:59:43;;;;;;;8.10;6.07;;;;;;;;;;4995068;28;20565;-88
2024/01/07 07:02:10;;;;;;;8.80;5.90;;;;;;;;;;4994900;28;20230;-88
2024/01/07 07:04:37;;;;;;;6.87;5.70;;;;;;;;;;4994944;28;20242;-88
2024/01/07 07:07:05;;;;;;;8.17;5.27;;;;;;;;;;4993962;28;20239;-87
2024/01/07 07:09:33;;;;;;;6.63;5.20;;;;;;;;;;4994477;28;20721;-87
2024/01/07 07:12:01;;;;;;;9.40;5.63;;;;;;;;;;4994149;28;20289;-87
2024/01/07 07:14:28;;;;;;;7.27;5.33;;;;;;;;;;4994238;28;20241;-87
2024/01/07 07:16:56;;;;;;;8.80;5.43;;;;;;;;;;4993957;28;20246;-87
2024/01/07 07:19:23;;;;;;;7.23;4.90;;;;;;;;;;4994740;28;20226;-87
2024/01/07 07:21:50;;;;;;;7.90;5.50;;;;;;;;;;4993982;28;20237;-87
2024/01/07 07:24:17;;;;;;;10.97;5.17;;;;;;;;;;4993773;28;20223;-87
2024/01/07 07:26:44;;;;;;;7.23;4.93;;;;;;;;;;4993671;28;20289;-88
2024/01/07 07:29:11;;;;;;;6.10;5.10;;;;;;;;;;4994620;28;20234;-90
2024/01/07 07:31:57;;;;;;;4.97;4.33;;;;;;;;;;4989528;28;20243;-90
2024/01/07 07:34:24;;;;;;;6.40;4.37;;;;;;;;;;4994354;28;20204;-84
2024/01/07 07:36:51;;;;;;;7.63;5.23;;;;;;;;;;4992988;28;20239;-85
2024/01/07 07:39:18;;;;;;;8.33;5.97;;;;;;;;;;4993302;28;20229;-85
2024/01/07 07:41:45;;;;;;;7.27;5.60;;;;;;;;;;4992870;28;20232;-86
2024/01/07 07:44:12;;;;;;;5.73;4.80;;;;;;;;;;4993781;28;20207;-85
2024/01/07 07:46:39;;;;;;;4.47;4.07;;;;;;;;;;4993504;28;20308;-85
2024/01/07 07:49:08;;;;;;;5.33;4.40;;;;;;;;;;4996214;28;20697;-86
2024/01/07 07:51:35;;;;;;;7.37;5.80;;;;;;;;;;4993269;28;20264;-86
2024/01/07 07:54:03;;;;;;;6.37;4.87;;;;;;;;;;4994907;28;20690;-87
2024/01/07 07:56:30;;;;;;;5.87;4.67;;;;;;;;;;4993709;28;20262;-87
2024/01/07 07:58:57;;;;;;;7.87;5.03;;;;;;;;;;4993681;28;20775;-87
2024/01/07 08:01:25;;;;;;;4.97;4.37;;;;;;;;;;4994057;28;20239;-87
2024/01/07 08:03:52;;;;;;;9.33;4.60;;;;;;;;;;4989230;28;20219;-88
2024/01/07 08:06:21;;;;;;;6.57;5.40;;;;;;;;;;5003554;28;20317;-84
2024/01/07 08:08:48;;;;;;;5.67;5.03;;;;;;;;;;5013113;28;20238;-85
2024/01/07 08:11:15;;;;;;;5.30;4.50;;;;;;;;;;5012670;28;20358;-85
2024/01/07 08:13:42;;;;;;;6.73;4.80;;;;;;;;;;5013014;28;20214;-84
2024/01/07 08:16:10;;;;;;;7.47;4.33;;;;;;;;;;5012056;28;20230;-85
2024/01/07 08:18:37;;;;;;;7.17;5.13;;;;;;;;;;5012428;28;20241;-85
2024/01/07 08:21:04;;;;;;;8.03;5.40;;;;;;;;;;5003814;28;20238;-85
2024/01/07 08:23:33;;;;;;;6.50;5.17;;;;;;;;;;4992833;28;20267;-85
2024/01/07 08:26:00;;;;;;;4.30;3.80;;;;;;;;;;5000912;28;20747;-85
2024/01/07 08:28:27;;;;;;;7.43;5.10;;;;;;;;;;5007841;28;20205;-86
2024/01/07 08:30:56;;;;;;;6.47;5.20;;;;;;;;;;4996605;28;20239;-85
2024/01/07 08:33:23;;;;;;;5.07;4.57;;;;;;;;;;4985339;28;20579;-86
2024/01/07 08:35:50;;;;;;;5.07;4.60;;;;;;;;;;4996402;28;20238;-85
2024/01/07 08:38:17;;;;;;;6.00;4.83;;;;;;;;;;4996585;28;20284;-84
2024/01/07 08:40:45;;;;;;;5.63;4.47;;;;;;;;;;4973618;28;20238;-85
2024/01/07 08:43:12;;;;;;;5.53;4.83;;;;;;;;;;4977156;28;20212;-85
2024/01/07 08:45:39;;;;;;;7.03;4.83;;;;;;;;;;4986897;28;20239;-85
2024/01/07 08:48:07;;;;;;;8.17;5.63;;;;;;;;;;4995434;28;20573;-84
2024/01/07 08:50:34;;;;;;;10.03;5.70;;;;;;;;;;4979907;28;20243;-83
2024/01/07 08:53:01;;;;;;;6.53;5.37;;;;;;;;;;4992430;28;20660;-89
2024/01/07 08:55:28;;;;;;;5.50;4.93;;;;;;;;;;4977912;28;20246;-88
2024/01/07 08:57:56;;;;;;;5.90;4.53;;;;;;;;;;4978943;28;20232;-88
2024/01/07 09:00:26;;;;;;;6.40;5.80;;;;;;;;;;4985273;28;20241;-87
2024/01/07 09:02:53;;;;;;;7.37;5.80;;;;;;;;;;4982833;28;20290;-86
2024/01/07 09:05:20;;;;;;;6.87;5.03;;;;;;;;;;4999490;28;20207;-86
2024/01/07 09:07:47;;;;;;;5.30;4.07;;;;;;;;;;4985950;28;20220;-85
2024/01/07 09:10:14;;;;;;;5.53;5.03;;;;;;;;;;4977062;28;20722;-86
2024/01/07 09:12:41;;;;;;;6.97;5.40;;;;;;;;;;4977548;28;20209;-86
2024/01/07 09:15:10;;;;;;;8.63;4.50;;;;;;;;;;4976457;28;20740;-85
2024/01/07 09:17:37;;;;;;;6.17;4.63;;;;;;;;;;4993611;28;20325;-90
2024/01/07 09:20:07;;;;;;;3.27;3.00;;;;;;;;;;4982475;28;20235;-88
2024/01/07 09:22:35;;;;;;;4.47;3.63;;;;;;;;;;4997071;28;20579;-86
2024/01/07 09:25:02;;;;;;;4.43;4.03;;;;;;;;;;4988479;28;20586;-87
2024/01/07 09:27:29;;;;;;;5.70;4.10;;;;;;;;;;4987840;28;20220;-87
2024/01/07 09:29:56;;;;;;;5.50;5.00;;;;;;;;;;4984811;28;20724;-86
2024/01/07 09:32:24;;;;;;;5.73;4.80;;;;;;;;;;4991861;28;20228;-85
2024/01/07 09:34:51;;;;;;;5.53;4.93;;;;;;;;;;4987823;28;20235;-86
2024/01/07 09:37:19;;;;;;;4.93;4.50;;;;;;;;;;4994781;28;20238;-86
2024/01/07 09:39:55;;;;;;;5.93;5.00;;;;;;;;;;4985970;28;20243;-87
2024/01/07 09:42:22;;;;;;;5.77;4.90;;;;;;;;;;4984572;28;20243;-87
2024/01/07 09:44:49;;;;;;;5.43;4.63;;;;;;;;;;4987742;28;20334;-87
2024/01/07 09:47:20;;;;;;;4.70;4.30;;;;;;;;;;4980948;28;20239;-86
2024/01/07 09:49:48;;;;;;;6.27;4.47;;;;;;;;;;4977145;28;20256;-89
2024/01/07 09:52:17;;;;;;;7.70;5.03;;;;;;;;;;4979026;28;20314;-84
2024/01/07 09:54:45;;;;;;;5.10;4.60;;;;;;;;;;4989724;28;20635;-85
2024/01/07 09:57:13;;;;;;;4.87;4.37;;;;;;;;;;4994508;28;20587;-85
2024/01/07 09:59:40;;;;;;;4.57;4.17;;;;;;;;;;4989682;28;20278;-84
2024/01/07 10:02:07;;;;;;;5.40;4.90;;;;;;;;;;4994438;28;20232;-85
2024/01/07 10:04:34;;;;;;;3.63;3.33;;;;;;;;;;4994292;28;20214;-84
2024/01/07 10:07:04;;;;;;;6.23;4.37;;;;;;;;;;4994173;28;20720;-87
2024/01/07 10:09:31;;;;;;;6.47;4.40;;;;;;;;;;4995863;28;20675;-87
2024/01/07 10:11:58;;;;;;;5.07;4.57;;;;;;;;;;4995409;28;20231;-87
2024/01/07 10:14:25;;;;;;;5.80;5.20;;;;;;;;;;4995976;28;20205;-88
2024/01/07 10:16:53;;;;;;;6.70;5.03;;;;;;;;;;4994054;28;20255;-88
2024/01/07 10:19:23;;;;;;;5.20;4.70;;;;;;;;;;4994982;28;20225;-87
2024/01/07 10:22:01;;;;;;;6.00;4.73;;;;;;;;;;5008785;28;20238;-87
2024/01/07 10:24:33;;;;;;;4.37;3.97;;;;;;;;;;5014049;28;20297;-88
2024/01/07 10:27:01;;;;;;;5.00;4.20;;;;;;;;;;5013920;28;20226;-87
2024/01/07 10:29:29;;;;;;;5.97;5.10;;;;;;;;;;5014891;28;20247;-87
2024/01/07 10:31:57;;;;;;;6.27;4.63;;;;;;;;;;5014464;28;20238;-87
2024/01/07 10:34:25;;;;;;;4.17;3.77;;;;;;;;;;5014547;28;20201;-87
2024/01/07 10:36:53;;;;;;;5.57;5.07;;;;;;;;;;4998935;28;20655;-86
2024/01/07 10:39:21;;;;;;;5.30;4.20;;;;;;;;;;4995132;28;20224;-90
2024/01/07 10:41:49;;;;;;;5.70;4.90;;;;;;;;;;4994365;28;20241;-88
2024/01/07 10:44:16;;;;;;;5.40;4.83;;;;;;;;;;4994869;28;20203;-87
2024/01/07 10:46:44;;;;;;;5.40;4.73;;;;;;;;;;4993752;28;20638;-87
2024/01/07 10:49:17;;;;;;;7.27;5.37;;;;;;;;;;4993904;28;20265;-84
2024/01/07 10:51:45;;;;;;;4.40;3.97;;;;;;;;;;4993196;28;20606;-84
2024/01/07 10:54:14;;;;;;;7.47;5.60;;;;;;;;;;4993792;28;20212;-84
2024/01/07 10:56:46;;;;;;;6.10;4.50;;;;;;;;;;4992432;28;20246;-83
2024/01/07 10:59:15;;;;;;;5.30;4.77;;;;;;;;;;4993385;28;20219;-84
2024/01/07 11:01:43;;;;;;;6.20;4.70;;;;;;;;;;4992840;28;20236;-84
2024/01/07 11:04:12;;;;;;;5.20;4.70;;;;;;;;;;4993531;28;20294;-84
2024/01/07 11:06:43;;;;;;;5.30;4.60;;;;;;;;;;4991085;28;20234;-84
2024/01/07 11:09:16;;;;;;;5.60;5.00;;;;;;;;;;4993082;28;20234;-84
2024/01/07 11:11:43;;;;;;;6.23;4.97;;;;;;;;;;4991716;28;20235;-84
2024/01/07 11:14:29;;;;;;;5.53;4.97;;;;;;;;;;4992360;28;20233;-84
2024/01/07 11:16:57;;;;;;;5.20;4.30;;;;;;;;;;4991801;28;20229;-84
2024/01/07 11:19:25;;;;;;;8.23;4.67;;;;;;;;;;4993175;28;20237;-84
2024/01/07 11:21:52;;;;;;;6.10;5.23;;;;;;;;;;4992137;28;20238;-84
2024/01/07 11:24:34;;;;;;;5.90;4.43;;;;;;;;;;4992959;28;20696;-83
2024/01/07 11:27:03;;;;;;;8.63;4.43;;;;;;;;;;4990674;28;20238;-84
2024/01/07 11:29:30;;;;;;;7.80;4.90;;;;;;;;;;4992958;28;20280;-83
2024/01/07 11:32:00;;;;;;;5.93;4.87;;;;;;;;;;4999462;28;20238;-85
2024/01/07 11:34:40;;;;;;;7.07;5.23;;;;;;;;;;5003837;28;20204;-84
2024/01/07 11:37:09;;;;;;;4.93;4.47;;;;;;;;;;4990432;28;20316;-83
2024/01/07 11:39:36;;;;;;;7.13;4.87;;;;;;;;;;4992651;28;20239;-83
2024/01/07 11:42:03;;;;;;;6.67;4.80;;;;;;;;;;4987179;28;20321;-83
2024/01/07 11:44:30;;;;;;;5.97;4.40;;;;;;;;;;4992988;28;20201;-83
2024/01/07 11:46:59;;;;;;;6.23;4.77;;;;;;;;;;4991423;28;20223;-84
2024/01/07 11:49:26;;;;;;;6.63;4.30;;;;;;;;;;4992388;28;20572;-84
2024/01/07 11:51:53;;;;;;;5.30;4.60;;;;;;;;;;4992255;28;20290;-83
2024/01/07 11:54:20;;;;;;;6.23;4.80;;;;;;;;;;4993422;28;20205;-86
2024/01/07 11:56:47;;;;;;;6.20;4.80;;;;;;;;;;4994900;28;20237;-85
2024/01/07 11:59:14;;;;;;;7.10;5.07;;;;;;;;;;5013498;28;20233;-85
2024/01/07 12:01:41;;;;;;;7.83;4.93;;;;;;;;;;5004869;28;20289;-86
2024/01/07 12:04:11;;;;;;;5.70;4.93;;;;;;;;;;5000758;28;20207;-86
2024/01/07 12:06:39;;;;;;;5.83;4.73;;;;;;;;;;5002798;28;20234;-86
2024/01/07 12:09:06;;;;;;;6.67;5.07;;;;;;;;;;4998049;28;20223;-85
2024/01/07 12:11:33;;;;;;;8.93;4.10;;;;;;;;;;5009521;28;20281;-86
2024/01/07 12:14:01;;;;;;;5.70;4.80;;;;;;;;;;5013358;28;20673;-86
2024/01/07 12:16:28;;;;;;;4.13;3.73;;;;;;;;;;5012766;28;20709;-86
2024/01/07 12:18:55;;;;;;;7.07;4.53;;;;;;;;;;5013080;28;20236;-88
2024/01/07 12:21:23;;;;;;;6.47;4.60;;;;;;;;;;5012662;28;20225;-86
2024/01/07 12:23:52;;;;;;;5.83;4.63;;;;;;;;;;5012754;28;20206;-85
2024/01/07 12:26:19;;;;;;;6.17;4.73;;;;;;;;;;4998924;28;20262;-85
2024/01/07 12:28:53;;;;;;;5.00;4.40;;;;;;;;;;4993294;28;20289;-88
2024/01/07 12:31:20;;;;;;;6.33;4.73;;;;;;;;;;4997038;28;20237;-87
2024/01/07 12:33:47;;;;;;;6.90;4.67;;;;;;;;;;5010436;28;20708;-83
2024/01/07 12:36:15;;;;;;;7.23;5.70;;;;;;;;;;5007503;28;20232;-87
2024/01/07 12:38:43;;;;;;;6.73;5.33;;;;;;;;;;4988518;28;20288;-87
2024/01/07 12:41:10;;;;;;;4.63;4.23;;;;;;;;;;5000899;28;20716;-87
2024/01/07 12:43:38;;;;;;;7.00;5.17;;;;;;;;;;5001703;28;20213;-86
2024/01/07 12:46:05;;;;;;;5.23;4.17;;;;;;;;;;5008780;28;20220;-86
2024/01/07 12:48:34;;;;;;;5.00;4.50;;;;;;;;;;4993138;28;20199;-88
2024/01/07 12:51:01;;;;;;;7.17;4.27;;;;;;;;;;5001260;28;20245;-86
2024/01/07 12:53:29;;;;;;;4.37;3.90;;;;;;;;;;5013148;28;20210;-87
2024/01/07 12:55:57;;;;;;;5.33;4.20;;;;;;;;;;5012264;28;20262;-86
2024/01/07 12:58:24;;;;;;;11.40;4.70;;;;;;;;;;5012444;28;20230;-87
2024/01/07 13:00:51;;;;;;;6.10;4.60;;;;;;;;;;5012819;28;20245;-87
2024/01/07 13:03:19;;;;;;;5.87;4.53;;;;;;;;;;5013616;28;20208;-86
2024/01/07 13:05:48;;;;;;;5.23;3.40;;;;;;;;;;5012762;28;20243;-86
2024/01/07 13:08:15;;;;;;;5.27;4.57;;;;;;;;;;5013844;28;20205;-88
2024/01/07 13:10:43;;;;;;;2.73;2.60;;;;;;;;;;5013772;28;20238;-88
2024/01/07 13:13:12;;;;;;;4.90;3.97;;;;;;;;;;5036559;28;20233;-89
2024/01/07 13:15:40;;;;;;;11.20;4.23;;;;;;;;;;5038090;28;20244;-86
2024/01/07 13:18:08;;;;;;;5.83;4.80;;;;;;;;;;5038221;28;20468;-89
2024/01/07 13:20:35;;;;;;;3.73;2.97;;;;;;;;;;5032630;28;20233;-86
2024/01/07 13:23:04;;;;;;;4.17;3.20;;;;;;;;;;5018167;28;20200;-86
2024/01/07 13:25:31;;;;;;;6.13;4.23;;;;;;;;;;5011807;28;20260;-84
2024/01/07 13:27:59;;;;;;;7.53;4.67;;;;;;;;;;4999372;28;20211;-85
2024/01/07 13:30:27;;;;;;;3.70;3.40;;;;;;;;;;4997843;28;20231;-84
2024/01/07 13:32:56;;;;;;;5.10;4.23;;;;;;;;;;4997572;28;20204;-83
2024/01/07 13:35:24;;;;;;;6.33;4.47;;;;;;;;;;4996829;28;20260;-85
2024/01/07 13:37:52;;;;;;;6.70;4.70;;;;;;;;;;4995704;28;20270;-84
2024/01/07 13:40:19;;;;;;;5.57;5.07;;;;;;;;;;4996027;28;20231;-85
2024/01/07 13:42:50;;;;;;;7.00;4.57;;;;;;;;;;4991552;28;20229;-85
2024/01/07 13:45:19;;;;;;;5.50;4.70;;;;;;;;;;4995657;28;20202;-85
2024/01/07 13:47:48;;;;;;;5.03;4.33;;;;;;;;;;4996470;28;20218;-84
2024/01/07 13:50:15;;;;;;;4.23;3.70;;;;;;;;;;4991444;28;20228;-83
2024/01/07 13:52:42;;;;;;;4.27;3.80;;;;;;;;;;4996382;28;20209;-86
2024/01/07 13:55:10;;;;;;;4.40;4.00;;;;;;;;;;4995466;28;20234;-84
2024/01/07 13:57:37;;;;;;;2.43;2.33;;;;;;;;;;4996135;28;20246;-86
2024/01/07 14:00:07;;;;;;;5.43;4.83;;;;;;;;;;4995305;28;20235;-88
2024/01/07 14:02:34;;;;;;;9.80;4.90;;;;;;;;;;4996158;28;20207;-87
2024/01/07 14:05:03;;;;;;;5.27;3.90;;;;;;;;;;4995920;28;20210;-88
2024/01/07 14:07:30;;;;;;;3.93;3.53;;;;;;;;;;5008021;28;20245;-85
2024/01/07 14:09:57;;;;;;;2.83;2.70;;;;;;;;;;4995514;28;20749;-88
2024/01/07 14:12:24;;;;;;;2.53;2.43;;;;;;;;;;5001071;28;20232;-86
2024/01/07 14:14:52;;;;;;;5.30;3.90;;;;;;;;;;4994751;28;20681;-84
2024/01/07 14:17:19;;;;;;;3.87;3.57;;;;;;;;;;5013099;28;20607;-84
2024/01/07 14:19:47;;;;;;;2.80;2.60;;;;;;;;;;5014739;28;20236;-85
2024/01/07 14:22:16;;;;;;;3.80;3.50;;;;;;;;;;5014353;28;20305;-85
2024/01/07 14:24:43;;;;;;;4.20;3.87;;;;;;;;;;5014256;28;20206;-86
2024/01/07 14:27:11;;;;;;;6.00;4.20;;;;;;;;;;5005624;28;20238;-85
2024/01/07 14:29:38;;;;;;;6.20;4.20;;;;;;;;;;5014513;28;20219;-85
2024/01/07 14:32:05;;;;;;;3.43;3.03;;;;;;;;;;5013765;28;20311;-85
2024/01/07 14:34:32;;;;;;;3.77;3.50;;;;;;;;;;5014273;28;20271;-84
2024/01/07 14:37:01;;;;;;;4.10;3.60;;;;;;;;;;4997300;28;20236;-85
2024/01/07 14:39:29;;;;;;;3.87;3.57;;;;;;;;;;4994279;28;20778;-85
2024/01/07 14:41:56;;;;;;;3.00;2.80;;;;;;;;;;4993612;28;20236;-85
2024/01/07 14:44:23;;;;;;;4.83;3.30;;;;;;;;;;4994447;28;20580;-85
2024/01/07 14:46:50;;;;;;;3.47;3.27;;;;;;;;;;4993655;28;20672;-84